.
WxDataArchive / Data Records for 2013-03-04
2013-03-03 March 2013 2013-03-05

Data Records for Monday, 04 March 2013

Time	Temp	Chill	HIndex	Humid	Dewpt	 Wind 	HiWind	WindDir	Rain 	Barom 
-----	----	-----	------	-----	-----	------	------	-------	-----	----- 
00:00	20.5	20.5	20.5	72	12.9	0	0	---	0.00	30.113 
00:05	20.5	20.5	20.5	72	12.9	0	0	---	0.00	30.113 
00:10	20.3	20.3	20.3	73	13.1	0	0	---	0.00	30.113 
00:15	20.2	20.2	20.2	73	13.0	0	0	---	0.00	30.116 
00:20	20.0	20.0	20.0	73	12.8	0	0	---	0.00	30.116 
00:25	19.9	19.9	19.9	73	12.7	0	0	---	0.00	30.116 
00:30	19.9	19.9	19.9	74	13.0	0	0	---	0.00	30.117 
00:35	19.7	19.7	19.7	74	12.8	0	0	---	0.00	30.117 
00:40	19.7	19.7	19.7	74	12.8	0	0	---	0.00	30.117 
00:45	19.5	19.5	19.5	74	12.6	0	0	---	0.00	30.117 
00:50	19.2	19.2	19.2	75	12.6	0	0	---	0.00	30.117 
00:55	19.1	19.1	19.1	75	12.5	0	0	---	0.00	30.117 
01:00	18.8	18.8	18.8	75	12.2	0	0	---	0.00	30.120 
01:05	18.6	18.6	18.6	75	12.0	0	0	---	0.00	30.120 
01:10	18.4	18.4	18.4	76	12.1	0	0	---	0.00	30.120 
01:15	18.1	18.1	18.1	76	11.8	0	0	---	0.00	30.129 
01:20	18.0	18.0	18.0	76	11.7	0	0	---	0.00	30.129 
01:25	17.7	17.7	17.7	76	11.4	0	0	---	0.00	30.129 
01:30	17.5	17.5	17.5	77	11.5	0	0	---	0.00	30.130 
01:35	17.5	17.5	17.5	77	11.5	0	0	---	0.00	30.130 
01:40	17.5	17.5	17.5	78	11.8	0	0	---	0.00	30.130 
01:45	17.5	17.5	17.5	78	11.8	0	0	---	0.00	30.125 
01:50	17.3	17.3	17.3	79	11.9	0	0	---	0.00	30.125 
01:55	17.2	17.2	17.2	79	11.8	0	0	---	0.00	30.125 
02:00	17.2	17.2	17.2	79	11.8	0	0	---	0.00	30.120 
02:05	17.0	17.0	17.0	79	11.6	0	0	---	0.00	30.120 
02:10	16.7	16.7	16.7	79	11.3	0	0	---	0.00	30.120 
02:15	16.7	16.7	16.7	79	11.3	0	0	---	0.00	30.118 
02:20	16.5	16.5	16.5	80	11.4	0	0	---	0.00	30.118 
02:25	16.4	16.4	16.4	80	11.3	0	0	---	0.00	30.118 
02:30	16.4	16.4	16.4	80	11.3	0	0	---	0.00	30.119 
02:35	16.2	16.2	16.2	80	11.1	0	0	---	0.00	30.119 
02:40	16.1	16.1	16.1	81	11.3	0	0	---	0.00	30.119 
02:45	16.1	16.1	16.1	81	11.3	0	0	---	0.00	30.119 
02:50	16.1	16.1	16.1	81	11.3	0	0	---	0.00	30.119 
02:55	15.9	15.9	15.9	81	11.1	0	0	---	0.00	30.119 
03:00	15.9	15.9	15.9	82	11.4	0	0	---	0.00	30.124 
03:05	15.9	15.9	15.9	82	11.4	0	0	---	0.00	30.124 
03:10	15.9	15.9	15.9	82	11.4	0	0	---	0.00	30.124 
03:15	16.1	16.1	16.1	83	11.9	0	0	---	0.00	30.131 
03:20	16.4	16.4	16.4	83	12.2	0	0	---	0.00	30.131 
03:25	16.5	16.5	16.5	83	12.3	0	0	---	0.00	30.131 
03:30	16.7	16.7	16.7	83	12.5	0	0	---	0.00	30.133 
03:35	16.7	16.7	16.7	83	12.5	0	0	---	0.00	30.133 
03:40	16.5	16.5	16.5	83	12.3	0	0	---	0.00	30.133 
03:45	16.5	16.5	16.5	83	12.3	0	0	---	0.00	30.134 
03:50	16.4	16.4	16.4	83	12.2	0	0	---	0.00	30.134 
03:55	16.4	16.4	16.4	83	12.2	0	0	---	0.00	30.134 
04:00	16.4	16.4	16.4	83	12.2	0	0	---	0.00	30.135 
04:05	16.4	16.4	16.4	84	12.4	0	0	---	0.00	30.135 
04:10	16.5	16.5	16.5	84	12.5	0	0	---	0.00	30.135 
04:15	16.5	16.5	16.5	84	12.5	0	0	---	0.00	30.135 
04:20	16.5	16.5	16.5	84	12.5	0	0	---	0.00	30.135 
04:25	16.5	16.5	16.5	84	12.5	0	0	---	0.00	30.135 
04:30	16.7	16.7	16.7	84	12.7	0	0	---	0.00	30.141 
04:35	16.7	16.7	16.7	84	12.7	0	0	---	0.00	30.141 
04:40	16.7	16.7	16.7	84	12.7	0	0	---	0.00	30.141 
04:45	16.9	16.9	16.9	84	12.9	0	0	---	0.00	30.139 
04:50	16.9	16.9	16.9	84	12.9	0	0	---	0.00	30.139 
04:55	16.9	16.9	16.9	84	12.9	0	0	---	0.00	30.139 
05:00	16.9	16.9	16.9	84	12.9	0	0	---	0.00	30.144 
05:05	16.7	16.7	16.7	84	12.7	0	0	---	0.00	30.144 
05:10	16.7	16.7	16.7	83	12.5	0	0	---	0.00	30.144 
05:15	16.5	16.5	16.5	83	12.3	0	0	---	0.00	30.149 
05:20	16.4	16.4	16.4	83	12.2	0	0	---	0.00	30.149 
05:25	16.2	16.2	16.2	83	12.0	0	0	---	0.00	30.149 
05:30	16.1	16.1	16.1	83	11.9	0	0	---	0.00	30.149 
05:35	15.9	15.9	15.9	83	11.7	0	0	---	0.00	30.149 
05:40	15.7	15.7	15.7	83	11.5	0	0	---	0.00	30.149 
05:45	15.6	15.6	15.6	83	11.4	0	0	---	0.00	30.153 
05:50	15.4	15.4	15.4	84	11.4	0	0	---	0.00	30.153 
05:55	15.4	15.4	15.4	84	11.4	0	0	---	0.00	30.153 
06:00	15.6	15.6	15.6	84	11.6	0	0	---	0.00	30.163 
06:05	15.9	15.9	15.9	84	11.9	0	0	---	0.00	30.163 
06:10	16.1	16.1	16.1	84	12.1	0	0	---	0.00	30.163 
06:15	15.9	15.9	15.9	84	11.9	0	0	---	0.00	30.168 
06:20	15.9	15.9	15.9	84	11.9	0	0	---	0.00	30.168 
06:25	15.9	15.9	15.9	84	11.9	0	0	---	0.00	30.168 
06:30	15.7	15.7	15.7	84	11.7	0	0	---	0.00	30.170 
06:35	15.7	15.7	15.7	85	12.0	0	0	---	0.00	30.170 
06:40	15.7	15.7	15.7	85	12.0	0	0	---	0.00	30.170 
06:45	15.7	15.7	15.7	85	12.0	0	0	---	0.00	30.170 
06:50	15.6	15.6	15.6	84	11.6	0	0	---	0.00	30.170 
06:55	15.4	15.4	15.4	84	11.4	0	0	---	0.00	30.170 
07:00	15.2	15.2	15.2	84	11.3	0	0	---	0.00	30.169 
07:05	15.1	15.1	15.1	85	11.4	0	0	---	0.00	30.169 
07:10	15.1	15.1	15.1	85	11.4	0	0	---	0.00	30.169 
07:15	15.1	15.1	15.1	85	11.4	0	0	---	0.00	30.173 
07:20	14.9	14.9	14.9	85	11.2	0	0	---	0.00	30.173 
07:25	14.9	14.9	14.9	85	11.2	0	0	---	0.00	30.173 
07:30	14.9	14.9	14.9	85	11.2	0	0	---	0.00	30.175 
07:35	15.1	15.1	15.1	85	11.4	0	0	---	0.00	30.175 
07:40	15.4	15.4	15.4	86	12.0	0	0	---	0.00	30.175 
07:45	16.1	16.1	16.1	86	12.7	0	0	---	0.00	30.178 
07:50	17.0	17.0	17.0	88	14.1	0	0	---	0.00	30.178 
07:55	18.0	18.0	18.0	88	15.1	0	0	---	0.00	30.178 
08:00	18.8	18.8	18.8	87	15.6	0	0	---	0.00	30.173 
08:05	19.1	19.1	19.1	87	15.9	0	0	---	0.00	30.173 
08:10	19.4	19.4	19.4	87	16.2	0	0	---	0.00	30.173 
08:15	19.9	19.9	19.9	86	16.4	0	0	---	0.00	30.175 
08:20	20.3	20.3	20.3	86	16.8	0	0	---	0.00	30.175 
08:25	20.8	20.8	20.8	86	17.3	0	1	270	0.00	30.175 
08:30	21.3	21.3	21.3	85	17.5	0	1	270	0.00	30.179 
08:35	21.6	21.6	21.6	84	17.5	0	2	270	0.00	30.179 
08:40	22.1	22.1	22.1	83	17.7	0	1	270	0.00	30.179 
08:45	22.5	22.5	22.5	81	17.6	0	1	270	0.00	30.179 
08:50	23.0	23.0	23.0	81	18.1	0	1	270	0.00	30.179 
08:55	23.3	23.3	23.3	79	17.8	0	1	270	0.00	30.179 
09:00	23.6	23.6	23.6	77	17.5	0	2	270	0.00	30.178 
09:05	23.9	23.9	23.9	76	17.5	0	1	270	0.00	30.178 
09:10	24.4	24.4	24.4	75	17.6	0	1	270	0.00	30.178 
09:15	24.5	24.5	24.5	74	17.4	0	2	270	0.00	30.179 
09:20	24.7	24.7	24.7	73	17.3	0	2	270	0.00	30.179 
09:25	25.0	25.0	25.0	73	17.6	0	1	270	0.00	30.179 
09:30	25.1	25.1	25.1	72	17.4	1	2	270	0.00	30.173 
09:35	25.3	25.3	25.3	71	17.2	0	2	270	0.00	30.173 
09:40	25.4	25.4	25.4	70	17.0	0	3	270	0.00	30.173 
09:45	25.7	25.7	25.7	70	17.3	0	2	292	0.00	30.171 
09:50	26.1	26.1	26.1	70	17.7	0	1	292	0.00	30.171 
09:55	26.7	26.7	26.7	69	17.9	0	1	292	0.00	30.171 
10:00	26.9	26.9	26.9	67	17.4	0	2	292	0.00	30.173 
10:05	27.2	27.2	27.2	66	17.4	0	2	292	0.00	30.173 
10:10	27.3	27.3	27.3	65	17.1	0	2	292	0.00	30.173 
10:15	27.2	27.2	27.2	65	17.0	0	2	292	0.00	30.168 
10:20	27.2	27.2	27.2	65	17.0	1	2	292	0.00	30.168 
10:25	27.3	27.3	27.3	65	17.1	0	2	292	0.00	30.168 
10:30	27.6	27.6	27.6	64	17.0	1	2	292	0.00	30.165 
10:35	27.8	27.8	27.8	64	17.2	0	2	292	0.00	30.165 
10:40	28.1	28.1	28.1	63	17.2	0	1	292	0.00	30.165 
10:45	28.2	28.2	28.2	62	16.9	1	2	292	0.00	30.164 
10:50	28.4	28.4	28.4	62	17.1	0	2	292	0.00	30.164 
10:55	29.0	29.0	29.0	61	17.3	1	3	292	0.00	30.164 
11:00	29.4	29.4	29.4	59	16.9	1	3	112	0.00	30.161 
11:05	29.3	29.3	29.3	59	16.8	2	4	112	0.00	30.161 
11:10	29.7	29.7	29.7	61	17.9	0	2	135	0.00	30.161 
11:15	30.0	30.0	30.0	60	17.8	1	2	68	0.00	30.163 
11:20	30.3	30.3	30.3	58	17.3	0	2	68	0.00	30.163 
11:25	30.6	30.6	30.6	58	17.6	0	2	68	0.00	30.163 
11:30	30.9	30.9	30.9	58	17.9	1	2	45	0.00	30.158 
11:35	31.0	31.0	31.0	55	16.8	0	2	292	0.00	30.158 
11:40	31.3	31.3	31.3	55	17.0	0	2	292	0.00	30.158 
11:45	31.8	31.8	31.8	54	17.1	0	2	292	0.00	30.153 
11:50	31.5	31.5	31.5	54	16.8	1	2	22	0.00	30.153 
11:55	31.5	31.5	31.5	54	16.8	1	3	22	0.00	30.153 
12:00	31.5	31.5	31.5	52	15.9	0	2	315	0.00	30.146 
12:05	31.9	31.9	31.9	53	16.7	1	3	292	0.00	30.146 
12:10	31.9	31.9	31.9	53	16.7	0	3	0	0.00	30.146 
12:15	32.2	32.2	32.2	51	16.1	1	4	90	0.00	30.145 
12:20	32.7	32.7	32.7	52	17.0	1	5	112	0.00	30.145 
12:25	32.8	32.8	32.8	51	16.7	0	2	45	0.00	30.145 
12:30	32.7	32.7	32.7	50	16.1	2	5	112	0.00	30.136 
12:35	32.7	32.7	32.7	51	16.6	1	5	68	0.00	30.136 
12:40	32.9	32.9	32.9	52	17.2	0	1	68	0.00	30.136 
12:45	33.1	33.1	33.1	53	17.9	2	6	90	0.00	30.131 
12:50	33.1	33.1	33.1	51	17.0	0	2	68	0.00	30.131 
12:55	33.1	33.1	33.1	51	17.0	2	4	90	0.00	30.131 
13:00	33.1	33.1	33.1	53	17.9	2	4	112	0.00	30.128 
13:05	33.1	33.1	33.1	51	17.0	1	4	112	0.00	30.128 
13:10	33.2	33.2	33.2	51	17.1	1	4	135	0.00	30.128 
13:15	33.4	33.4	33.4	50	16.8	0	2	135	0.00	30.124 
13:20	33.4	33.4	33.4	50	16.8	2	5	112	0.00	30.124 
13:25	33.4	33.4	33.4	51	17.2	2	4	112	0.00	30.124 
13:30	33.4	33.4	33.4	50	16.8	2	4	112	0.00	30.118 
13:35	33.5	33.5	33.5	50	16.9	1	3	112	0.00	30.118 
13:40	33.7	33.7	33.7	49	16.6	0	2	22	0.00	30.118 
13:45	34.1	34.1	34.1	48	16.5	1	3	90	0.00	30.116 
13:50	34.4	34.4	34.4	47	16.3	1	3	90	0.00	30.116 
13:55	34.3	34.3	34.3	47	16.2	1	3	90	0.00	30.116 
14:00	34.6	34.6	34.6	50	17.9	1	2	112	0.00	30.110 
14:05	34.7	34.7	34.7	49	17.5	1	5	112	0.00	30.110 
14:10	34.6	34.6	34.6	49	17.4	2	7	112	0.00	30.110 
14:15	34.4	34.4	34.4	49	17.2	1	5	90	0.00	30.103 
14:20	34.6	34.6	34.6	49	17.4	2	5	90	0.00	30.103 
14:25	34.3	34.3	34.3	49	17.1	1	4	90	0.00	30.103 
14:30	34.3	34.3	34.3	50	17.6	1	6	112	0.00	30.101 
14:35	34.3	34.3	34.3	48	16.7	1	4	90	0.00	30.101 
14:40	34.6	34.6	34.6	50	17.9	1	5	90	0.00	30.101 
14:45	34.6	34.6	34.6	50	17.9	1	4	112	0.00	30.099 
14:50	34.6	34.6	34.6	49	17.4	1	4	90	0.00	30.099 
14:55	34.4	34.4	34.4	50	17.7	1	4	112	0.00	30.099 
15:00	34.4	34.4	34.4	50	17.7	1	3	90	0.00	30.098 
15:05	34.6	34.6	34.6	50	17.9	1	6	90	0.00	30.098 
15:10	34.4	34.4	34.4	50	17.7	2	5	90	0.00	30.098 
15:15	34.4	34.4	34.4	50	17.7	1	4	112	0.00	30.093 
15:20	34.7	34.7	34.7	50	18.0	2	4	112	0.00	30.093 
15:25	34.7	34.7	34.7	49	17.5	2	5	90	0.00	30.093 
15:30	34.9	34.9	34.9	49	17.7	2	4	90	0.00	30.094 
15:35	34.7	34.7	34.7	47	16.6	2	6	112	0.00	30.094 
15:40	34.7	34.7	34.7	48	17.0	2	6	112	0.00	30.094 
15:45	34.7	34.7	34.7	47	16.6	2	5	90	0.00	30.092 
15:50	34.9	34.9	34.9	46	16.2	1	3	90	0.00	30.092 
15:55	35.0	35.0	35.0	48	17.3	1	4	112	0.00	30.092 
16:00	34.9	34.9	34.9	50	18.2	1	4	90	0.00	30.089 
16:05	35.0	35.0	35.0	50	18.3	2	6	112	0.00	30.089 
16:10	34.9	34.9	34.9	51	18.6	1	3	90	0.00	30.089 
16:15	34.9	34.9	34.9	51	18.6	1	4	112	0.00	30.085 
16:20	34.6	34.6	34.6	51	18.4	2	5	112	0.00	30.085 
16:25	34.4	34.4	34.4	51	18.2	2	4	90	0.00	30.085 
16:30	34.3	34.3	34.3	51	18.1	2	5	112	0.00	30.084 
16:35	34.1	34.1	34.1	51	17.9	2	5	90	0.00	30.084 
16:40	34.1	34.1	34.1	52	18.3	1	4	112	0.00	30.084 
16:45	34.4	34.4	34.4	52	18.6	1	4	112	0.00	30.087 
16:50	34.4	34.4	34.4	51	18.2	1	4	90	0.00	30.087 
16:55	34.6	34.6	34.6	51	18.4	1	2	90	0.00	30.087 
17:00	34.4	34.4	34.4	50	17.7	1	5	90	0.00	30.086 
17:05	34.4	34.4	34.4	48	16.8	2	5	90	0.00	30.086 
17:10	34.3	34.3	34.3	49	17.1	1	4	112	0.00	30.086 
17:15	34.3	34.3	34.3	50	17.6	1	4	112	0.00	30.085 
17:20	34.3	34.3	34.3	51	18.1	2	4	90	0.00	30.085 
17:25	34.3	34.3	34.3	51	18.1	0	1	90	0.00	30.085 
17:30	34.3	34.3	34.3	51	18.1	0	2	90	0.00	30.084 
17:35	34.3	34.3	34.3	51	18.1	2	4	90	0.00	30.084 
17:40	34.1	34.1	34.1	51	17.9	1	4	90	0.00	30.084 
17:45	34.0	34.0	34.0	51	17.8	2	5	90	0.00	30.084 
17:50	33.7	33.7	33.7	51	17.5	2	5	90	0.00	30.084 
17:55	33.5	33.5	33.5	50	16.9	1	4	90	0.00	30.084 
18:00	33.4	33.4	33.4	50	16.8	2	4	112	0.00	30.084 
18:05	33.4	33.4	33.4	51	17.2	2	6	112	0.00	30.084 
18:10	33.2	33.2	33.2	53	17.9	2	4	90	0.00	30.084 
18:15	33.2	33.2	33.2	54	18.4	2	4	90	0.00	30.076 
18:20	33.1	33.1	33.1	54	18.3	1	5	112	0.00	30.076 
18:25	32.9	32.9	32.9	54	18.1	2	5	90	0.00	30.076 
18:30	32.9	32.9	32.9	55	18.5	1	4	68	0.00	30.079 
18:35	32.8	32.8	32.8	55	18.4	2	4	112	0.00	30.079 
18:40	32.8	32.8	32.8	56	18.9	1	4	90	0.00	30.079 
18:45	32.7	32.7	32.7	56	18.8	2	5	112	0.00	30.081 
18:50	32.7	32.7	32.7	57	19.2	2	4	90	0.00	30.081 
18:55	32.7	32.7	32.7	58	19.6	1	4	112	0.00	30.081 
19:00	32.5	32.5	32.5	57	19.0	1	4	112	0.00	30.082 
19:05	32.4	32.4	32.4	57	18.9	1	3	90	0.00	30.082 
19:10	32.4	32.4	32.4	58	19.3	1	5	90	0.00	30.082 
19:15	32.2	32.2	32.2	58	19.1	3	6	90	0.00	30.074 
19:20	32.2	32.2	32.2	59	19.5	1	4	90	0.00	30.074 
19:25	32.2	32.2	32.2	60	19.9	2	6	112	0.00	30.074 
19:30	32.2	32.2	32.2	60	19.9	2	6	112	0.00	30.070 
19:35	32.2	32.2	32.2	61	20.3	2	6	90	0.00	30.070 
19:40	32.1	32.1	32.1	61	20.2	2	5	112	0.00	30.070 
19:45	32.1	32.1	32.1	61	20.2	1	3	112	0.00	30.069 
19:50	32.1	32.1	32.1	61	20.2	1	4	112	0.00	30.069 
19:55	32.1	32.1	32.1	61	20.2	2	4	90	0.00	30.069 
20:00	32.1	32.1	32.1	61	20.2	2	5	90	0.00	30.067 
20:05	32.1	32.1	32.1	60	19.8	2	4	90	0.00	30.067 
20:10	32.2	32.2	32.2	60	19.9	2	4	90	0.00	30.067 
20:15	32.2	32.2	32.2	59	19.5	2	4	90	0.00	30.063 
20:20	32.2	32.2	32.2	60	19.9	1	4	90	0.00	30.063 
20:25	32.4	32.4	32.4	59	19.7	2	5	112	0.00	30.063 
20:30	32.4	32.4	32.4	60	20.1	1	4	90	0.00	30.064 
20:35	32.4	32.4	32.4	59	19.7	2	5	112	0.00	30.064 
20:40	32.4	32.4	32.4	60	20.1	2	5	112	0.00	30.064 
20:45	32.4	32.4	32.4	61	20.5	1	4	90	0.00	30.066 
20:50	32.4	32.4	32.4	60	20.1	1	4	90	0.00	30.066 
20:55	32.4	32.4	32.4	60	20.1	2	5	90	0.00	30.066 
21:00	32.4	32.4	32.4	60	20.1	2	4	90	0.00	30.071 
21:05	32.4	32.4	32.4	60	20.1	0	2	90	0.00	30.071 
21:10	32.4	32.4	32.4	59	19.7	1	4	90	0.00	30.071 
21:15	32.5	32.5	32.5	59	19.8	1	4	90	0.00	30.081 
21:20	32.5	32.5	32.5	59	19.8	0	3	90	0.00	30.081 
21:25	32.5	32.5	32.5	58	19.4	1	2	90	0.00	30.081 
21:30	32.5	32.5	32.5	59	19.8	1	2	90	0.00	30.087 
21:35	32.5	32.5	32.5	59	19.8	1	2	90	0.00	30.087 
21:40	32.5	32.5	32.5	58	19.4	1	3	90	0.00	30.087 
21:45	32.5	32.5	32.5	58	19.4	1	3	90	0.00	30.091 
21:50	32.7	32.7	32.7	58	19.6	1	3	90	0.00	30.091 
21:55	32.7	32.7	32.7	59	20.0	1	3	90	0.00	30.091 
22:00	32.5	32.5	32.5	59	19.8	0	1	90	0.00	30.094 
22:05	32.5	32.5	32.5	59	19.8	0	1	90	0.00	30.094 
22:10	32.5	32.5	32.5	60	20.2	0	1	90	0.00	30.094 
22:15	32.5	32.5	32.5	60	20.2	0	1	90	0.00	30.092 
22:20	32.5	32.5	32.5	61	20.6	0	1	90	0.00	30.092 
22:25	32.5	32.5	32.5	60	20.2	0	2	90	0.00	30.092 
22:30	32.5	32.5	32.5	61	20.6	0	2	90	0.00	30.090 
22:35	32.5	32.5	32.5	60	20.2	0	1	90	0.00	30.090 
22:40	32.5	32.5	32.5	61	20.6	0	1	90	0.00	30.090 
22:45	32.5	32.5	32.5	62	20.9	0	1	90	0.00	30.089 
22:50	32.5	32.5	32.5	62	20.9	0	1	90	0.00	30.089 
22:55	32.5	32.5	32.5	62	20.9	0	1	90	0.00	30.089 
23:00	32.5	32.5	32.5	62	20.9	0	1	90	0.00	30.091 
23:05	32.4	32.4	32.4	63	21.2	0	1	90	0.00	30.091 
23:10	32.4	32.4	32.4	63	21.2	0	1	90	0.00	30.091 
23:15	32.4	32.4	32.4	63	21.2	0	1	90	0.00	30.088 
23:20	32.4	32.4	32.4	64	21.6	0	1	90	0.00	30.088 
23:25	32.4	32.4	32.4	64	21.6	0	1	90	0.00	30.088 
23:30	32.2	32.2	32.2	65	21.8	0	1	90	0.00	30.087 
23:35	32.2	32.2	32.2	65	21.8	0	1	90	0.00	30.087 
23:40	32.2	32.2	32.2	65	21.8	0	1	90	0.00	30.087 
23:45	32.2	32.2	32.2	65	21.8	1	2	90	0.00	30.086 
23:50	32.2	32.2	32.2	66	22.1	0	2	90	0.00	30.086 
23:55	32.2	32.2	32.2	66	22.1	0	2	90	0.00	30.086 

CoCoRaHS
IN-AL-39
A2 Web Hosting
Creative Commons License
GoDaddy
search engine by freefind advanced

loaded 2018-11-13 17:11:20 • last modified 2010-11-18 10:43:29
Privacy PolicyDisclaimer
• wx.awcolley.com is powered by PmWiki v.2002016 •
• all content (unless otherwise noted) © 2018 A W Colley